LEHU
43.22.63N 005.49.57W
IN73CJ aprs.fi
zuletzt gehoert:
2022-08-13T17:30:04Z
zuerst gehoert:
2020-05-10T21:53:41Z

APRS Oviedo [IN73CI], 2 Stunde(n), LEHU [19:48:15, 0s].
LEHU 43.22.63N 005.49.57WIN73CJ 0.566km 326°NW17:30:04ZHelipuerto del HUCA: LEAS 131630Z 30005KT 240V010 9999 VCTS FEW005 SCT034CB 19/17 Q1012 TEMPO SHRA=
EB1JAJ 43.21.72N 005.51.82WIN73BI 3.554km 250°WSW17:32:17ZMMDVM MMDVM HS Dual Hat 438.0250/431.0250 CC1(3EB1JAJ-2)
EA1L 43.20.37N 005.51.13WIN73BI 4.417km 213°SSW17:45:06Zea1l@ure.es V=13.4V
Wind 005°/001kn, Böen bis 003kn, Temp 21.67c, Regen 0.0mm, letzte 24h 0.0mm, seit 0h 0.0mm, Baro 1010.7h, Hum: 82%(2EA1L-13)
ED1ZAU 43.23.04N 005.52.75WIN73BJ 4.764km 285°WNW17:32:35ZRD625 438.5000/430.9000 CC1
EA1ABW 43.24.77N 005.47.77WIN73CJ 4.923km 25°NNE17:30:19ZMMDVM MMDVM HS Hat 439.8250/439.8250 CC1(3EA1ABW-1)
MMDVM MMDVM HS Hat 439.8250/439.8250 CC1(2EA1ABW-2)
EA1HWX 43.19.28N 005.50.98WIN73BH 6.150km 201°SSW17:32:15ZDMO - UHF 439.7250/431.0000 CC11(3EA1HWX-2)
MMDVM DMO 222.3400/222.3400 CC1(2EA1HWX-10)
LEMR 43.25.83N 005.49.60WIN73CK 6.407km 357°N17:30:04ZAerodromo de la Morgal (123.500MHz): LEAS 131630Z 30005KT 240V010 9999 VCTS FEW005 SCT034CB 19/17 Q1012 TEMPO SHRA=
LEGM 43.26.15N 005.49.84WIN73CK 7.040km 355°N17:30:04ZHelipuerto de La Morgal (123.500MHz): LEAS 131630Z 30005KT 240V010 9999 VCTS FEW005 SCT034CB 19/17 Q1012 TEMPO SHRA=
EA1IPU 43.26.21N 005.46.62WIN73CK 8.007km 27°NNE17:31:11ZMMDVM MMDVM HS Hat 439.8000/439.8000 CC1(3EA1IPU-1)
EA1IMW 43.14.36N 005.46.93WIN73CF 15.209km 168°SSE17:32:11ZGRUPO RADIO GALENA (GRG) 430.4500/430.4500 CC1(3EA1IMW-1)
ED1ZAS 43.27.52N 005.40.17WIN73DL 15.595km 52°NE17:32:36ZRD985 438.2250/430.6250 CC1
ED1ZAE 43.27.99N 005.40.54WIN73DL 15.753km 49°NE17:38:30ZWIDE3-3 ESAS3-3 IN73DL WWW.EA1URG.ORG(3ED1ZAE-3)
ED1ZAY 43.29.47N 005.56.54WIN73AL 16.348km 324°NW17:32:34ZRD625 438.3000/430.7000 CC1
EB1DGC 43.12.60N 005.45.59WIN73CF 18.808km 164°SSE17:30:40ZMMDVM MMDVM HS Hat 433.4500/433.4500 CC1
EA1JBL 43.12.28N 005.47.42WIN73CE 18.870km 172°S17:32:03ZMMDVM DVMega 435.3000/435.3000 CC1
EA1HWA 43.12.00N 005.47.40WIN73CE 19.408km 172°S17:30:36ZMMDVM MMDVM HS Hat 433.4500/433.4500 CC1
EA1AHA 43.32.72N 005.54.38WIN73BN 20.343km 341°NNW17:32:02ZWind 000°/000kn, Böen bis 000kn, Temp 20.56c, Regen 0.3mm, letzte 24h 1.0mm, seit 0h 1.0mm, Baro 1014.6h, Hum: 81%(3EA1AHA-13)
EB1TK 43.32.22N 005.42.32WIN73DM 20.554km 27°NNE17:40:16ZWind 243°/002kn, Böen bis 004kn, Temp 18.89c, Regen 0.3mm, letzte 24h 1.8mm, seit 0h 1.8mm, Baro 1015.7h, Hum: 91%(3EB1TK-13)
EA1FFA 43.31.53N 005.40.64WIN73DM 20.621km 35°NE17:31:53ZMMDVM MMDVM HS Hat 438.8000/438.8000 CC1(3EA1FFA-1)
EA1AQK 43.16.49N 005.35.99WIN73EG 21.026km 121°ESE17:30:33ZMMDVM MMDVM HS Hat 439.8500/439.8500 CC1(3EA1AQK-1)
EA1DZR 43.31.48N 005.40.00WIN73EM 21.033km 37°NE17:32:28ZMMDVM MMDVM HS Hat 432.1000/432.1000 CC2(3EA1DZR-2)
MMDVM DVMega 431.1000/431.1000 CC1(2EA1DZR-1)
MMDVM DV ADER 434.3500/434.3500 CC1(2EA1DZR-4)
EA1IEJ 43.31.81N 005.40.17WIN73DM 21.408km 35°NE17:32:15ZMMDVM DMO 222.3400/222.3400 CC1(3EA1IEJ-11)
MMDVM MMDVM HS Hat 438.8500/438.8500 CC6(2EA1IEJ-1)
EC1AIJ 43.19.77N 005.33.49WIN73FH 21.899km 103°ESE17:30:38ZMMDVM MMDVM HS Hat 432.9800/432.9800 CC1
LEEL 43.32.98N 005.41.71WIN73DN 22.159km 28°NNE17:30:03ZHelipuerto de El Musel: LEAS 131630Z 30005KT 240V010 9999 VCTS FEW005 SCT034CB 19/17 Q1012 TEMPO SHRA=
EB1GEM 43.30.00N 005.36.07WIN73EM 22.779km 52°NE17:40:38ZWX3in1Plus2.0 U=13.3V,T=??.?C/??.?F(3EB1GEM-3)
EA1RCG 43.09.45N 005.49.78WIN73CD 23.944km 181°S17:31:07ZGRUPO RADIO GALENA (GRG) 430.4500/430.4500 CC1(3EA1RCG-3)
EA1HJA 43.28.10N 005.30.45WIN73FL 27.548km 67°ENE17:40:32Z] EA1HJA@QSL.NET=(3EA1HJA-9)
IN73FL WX3IN1+ 2.0 - V=14.0V,TX TEMP=48.6C(2EA1HJA)
EA1HJA@URE.ES(2EA1HJA-2)
ED1ZAD 43.07.90N 005.38.52WIN73ED 30.522km 151°SSE17:46:32ZED1ZAD-3 APRS Digi/Igate(3ED1ZAD-3)
EA1JAY 43.29.33N 005.26.78WIN73GL 32.987km 67°ENE17:30:05Z434.525MHz Nodo TETRA DMO(3EA1JAY-4)
EA1JAY(2EA1JAY-2)
EA1FHR 43.28.72N 005.26.41WIN73GL 33.010km 69°ENE17:30:38ZMMDVM MMDVM HS Hat 439.1500/439.1500 CC1
EA1HWD 43.28.96N 005.26.30WIN73GL 33.320km 68°ENE17:31:14ZMMDVM MMDVM HS Hat 434.2500/434.2500 CC1
EC1KV 43.34.01N 006.16.01WIN63UN 41.841km 301°WNW16:53:35Z VOLT.=13.7 V - TEMP.=??.? C(3EC1KV-1)
LETN 43.20.05N 006.22.69WIN63TI 45.151km 265°W17:30:05ZAerodromo de La Curiscada (Tineo): LEAS 131630Z 30005KT 240V010 9999 VCTS FEW005 SCT034CB 19/17 Q1012 TEMPO SHRA=
EA1JBU 43.30.80N 005.16.20WIN73IM 47.227km 71°ENE17:15:02ZEA1JBU(3EA1JBU-2)

aprs.pl 5.0.011w DL3EL © 2006-2021 [4353100]